createdAt,value
2019-01-19T00:02:16.523Z,9.13
2019-01-19T00:05:02.725Z,9.00
2019-01-19T00:07:39.325Z,8.97
2019-01-19T00:10:21.536Z,9.17
2019-01-19T00:13:09.274Z,9.57
2019-01-19T00:15:43.490Z,9.07
2019-01-19T00:18:40.318Z,8.57
2019-01-19T00:21:33.956Z,9.23
2019-01-19T00:24:24.708Z,8.50
2019-01-19T00:27:12.378Z,7.60
2019-01-19T00:29:49.072Z,7.20
2019-01-19T00:32:31.980Z,7.53
2019-01-19T00:35:19.310Z,8.43
2019-01-19T00:38:07.038Z,7.93
2019-01-19T00:40:54.730Z,8.00
2019-01-19T00:43:54.518Z,8.43
2019-01-19T00:47:01.693Z,8.93
2019-01-19T00:49:49.470Z,9.70
2019-01-19T00:52:36.322Z,9.73
2019-01-19T00:55:11.672Z,8.80
2019-01-19T00:57:45.304Z,10.10
2019-01-19T01:00:19.824Z,9.93
2019-01-19T01:03:00.486Z,9.43
2019-01-19T01:06:03.455Z,9.03
2019-01-19T01:08:45.582Z,10.03
2019-01-19T01:11:23.307Z,10.07
2019-01-19T01:14:19.822Z,10.00
2019-01-19T01:17:05.914Z,9.87
2019-01-19T01:19:51.432Z,11.10
2019-01-19T01:22:57.412Z,11.10
2019-01-19T01:25:45.120Z,10.47
2019-01-19T01:28:47.968Z,10.33
2019-01-19T01:31:41.422Z,9.80
2019-01-19T01:34:27.721Z,9.93
2019-01-19T01:37:18.500Z,8.90
2019-01-19T01:40:08.008Z,9.40
2019-01-19T01:43:13.635Z,9.53
2019-01-19T01:45:48.144Z,10.20
2019-01-19T01:48:51.080Z,9.33
2019-01-19T01:51:44.456Z,9.63
2019-01-19T01:54:25.798Z,9.60
2019-01-19T01:56:55.494Z,9.33
2019-01-19T01:59:37.003Z,9.67
2019-01-19T02:02:14.670Z,9.47
2019-01-19T02:05:05.400Z,8.50
2019-01-19T02:07:59.257Z,9.03
2019-01-19T02:10:55.830Z,9.20
2019-01-19T02:13:52.326Z,8.97
2019-01-19T02:16:57.974Z,8.63
2019-01-19T02:19:44.101Z,9.33
2019-01-19T02:22:34.934Z,9.73
2019-01-19T02:25:25.728Z,8.30
2019-01-19T02:28:07.707Z,8.93
2019-01-19T02:31:01.229Z,8.77
2019-01-19T02:33:48.376Z,8.70
2019-01-19T02:36:36.100Z,8.43
2019-01-19T02:39:26.834Z,9.10
2019-01-19T02:42:15.615Z,9.33
2019-01-19T02:45:06.221Z,8.63
2019-01-19T02:47:45.648Z,8.37
2019-01-19T02:50:28.633Z,8.40
2019-01-19T02:53:22.281Z,8.50
2019-01-19T02:56:24.875Z,8.00
2019-01-19T02:59:12.664Z,8.13
2019-01-19T03:02:06.172Z,7.57
2019-01-19T03:04:46.395Z,7.80
2019-01-19T03:07:43.192Z,7.93
2019-01-19T03:10:32.287Z,8.07
2019-01-19T03:13:11.443Z,8.30
2019-01-19T03:16:04.999Z,8.13
2019-01-19T03:19:04.744Z,7.90
2019-01-19T03:22:07.355Z,7.90
2019-01-19T03:25:01.070Z,7.27
2019-01-19T03:27:37.072Z,7.37
2019-01-19T03:30:18.797Z,7.47
2019-01-19T03:32:52.695Z,6.50
2019-01-19T03:35:31.368Z,7.50
2019-01-19T03:38:19.058Z,7.17
2019-01-19T03:40:56.256Z,7.80
2019-01-19T03:43:33.074Z,7.20
2019-01-19T03:46:10.561Z,7.90
2019-01-19T03:49:01.437Z,7.23
2019-01-19T03:51:35.121Z,7.27
2019-01-19T03:54:34.729Z,7.43
2019-01-19T03:57:25.611Z,7.27
2019-01-19T04:00:00.611Z,7.30
2019-01-19T04:02:51.175Z,6.97
2019-01-19T04:05:41.688Z,8.27
2019-01-19T04:08:32.661Z,7.10
2019-01-19T04:11:12.969Z,6.70
2019-01-19T04:13:54.899Z,7.27
2019-01-19T04:16:45.649Z,7.57
2019-01-19T04:19:31.687Z,6.83
2019-01-19T04:22:22.531Z,6.77
2019-01-19T04:25:00.013Z,6.97
2019-01-19T04:27:28.629Z,7.43
2019-01-19T04:29:57.212Z,7.00
2019-01-19T04:32:25.797Z,7.43
2019-01-19T04:34:54.405Z,7.70
2019-01-19T04:37:22.992Z,7.13
2019-01-19T04:39:51.589Z,7.73
2019-01-19T04:42:20.297Z,7.63
2019-01-19T04:44:48.879Z,7.50
2019-01-19T04:47:17.463Z,6.47
2019-01-19T04:49:46.080Z,7.20
2019-01-19T04:52:14.684Z,7.40
2019-01-19T04:54:43.255Z,6.40
2019-01-19T04:57:11.867Z,6.77
2019-01-19T04:59:40.493Z,7.20
2019-01-19T05:02:09.067Z,6.73
2019-01-19T05:04:37.723Z,6.73
2019-01-19T05:07:06.307Z,7.10
2019-01-19T05:09:34.903Z,7.40
2019-01-19T05:12:03.505Z,7.20
2019-01-19T05:14:32.115Z,6.20
2019-01-19T05:17:00.715Z,6.13
2019-01-19T05:19:29.340Z,6.53
2019-01-19T05:21:57.977Z,6.53
2019-01-19T05:24:26.557Z,6.50
2019-01-19T05:26:55.169Z,6.73
2019-01-19T05:29:23.759Z,6.60
2019-01-19T05:31:52.345Z,6.33
2019-01-19T05:34:20.948Z,6.70
2019-01-19T05:36:49.543Z,7.43
2019-01-19T05:39:18.135Z,6.43
2019-01-19T05:41:46.749Z,6.83
2019-01-19T05:44:15.328Z,6.40
2019-01-19T05:46:43.935Z,6.53
2019-01-19T05:49:12.650Z,6.87
2019-01-19T05:51:41.230Z,5.70
2019-01-19T05:54:09.891Z,6.37
2019-01-19T05:56:38.509Z,6.77
2019-01-19T05:59:07.082Z,6.43
2019-01-19T06:01:35.778Z,6.13
2019-01-19T06:04:04.504Z,6.20
2019-01-19T06:06:33.077Z,5.97
2019-01-19T06:09:01.658Z,6.47
2019-01-19T06:11:30.245Z,6.53
2019-01-19T06:13:58.835Z,6.67
2019-01-19T06:16:27.404Z,6.60
2019-01-19T06:18:56.201Z,6.30
2019-01-19T06:21:28.567Z,6.53
2019-01-19T06:23:57.130Z,6.40
2019-01-19T06:26:25.778Z,6.33
2019-01-19T06:28:54.347Z,6.20
2019-01-19T06:31:22.986Z,6.30
2019-01-19T06:33:51.608Z,6.50
2019-01-19T06:36:20.202Z,6.70
2019-01-19T06:38:48.799Z,5.97
2019-01-19T06:41:17.408Z,5.80
2019-01-19T06:43:46.006Z,6.03
2019-01-19T06:46:14.588Z,6.27
2019-01-19T06:48:43.236Z,6.47
2019-01-19T06:51:11.830Z,6.03
2019-01-19T06:53:40.416Z,6.17
2019-01-19T06:56:09.020Z,5.90
2019-01-19T06:58:37.609Z,6.10
2019-01-19T07:01:06.180Z,6.23
2019-01-19T07:03:34.826Z,5.93
2019-01-19T07:06:03.426Z,5.77
2019-01-19T07:08:32.012Z,6.40
2019-01-19T07:11:00.627Z,6.13
2019-01-19T07:13:29.230Z,6.17
2019-01-19T07:15:57.796Z,6.03
2019-01-19T07:18:26.397Z,6.57
2019-01-19T07:20:54.973Z,6.03
2019-01-19T07:23:23.556Z,5.63
2019-01-19T07:25:52.160Z,6.50
2019-01-19T07:28:20.746Z,6.40
2019-01-19T07:30:49.343Z,6.70
2019-01-19T07:33:17.958Z,6.40
2019-01-19T07:35:46.543Z,5.73
2019-01-19T07:38:15.132Z,5.83
2019-01-19T07:40:43.731Z,5.93
2019-01-19T07:43:14.181Z,6.07
2019-01-19T07:45:42.776Z,6.27
2019-01-19T07:48:11.381Z,5.50
2019-01-19T07:50:39.964Z,5.70
2019-01-19T07:53:08.551Z,5.77
2019-01-19T07:55:37.156Z,6.60
2019-01-19T07:58:05.735Z,5.50
2019-01-19T08:00:34.338Z,6.37
2019-01-19T08:03:02.945Z,6.10
2019-01-19T08:05:31.523Z,6.40
2019-01-19T08:08:00.109Z,6.43
2019-01-19T08:10:28.741Z,6.07
2019-01-19T08:12:57.337Z,6.00
2019-01-19T08:15:26.381Z,6.13
2019-01-19T08:17:54.991Z,6.30
2019-01-19T08:20:23.580Z,6.00
2019-01-19T08:22:52.266Z,6.07
2019-01-19T08:25:20.865Z,6.70
2019-01-19T08:27:49.555Z,5.67
2019-01-19T08:30:19.361Z,6.27
2019-01-19T08:32:47.988Z,6.67
2019-01-19T08:35:17.599Z,5.77
2019-01-19T08:37:46.239Z,6.50
2019-01-19T08:40:17.631Z,6.23
2019-01-19T08:42:47.641Z,7.00
2019-01-19T08:45:17.097Z,7.13
2019-01-19T08:47:45.683Z,6.67
2019-01-19T08:50:16.045Z,7.13
2019-01-19T08:52:44.665Z,6.53
2019-01-19T08:55:13.265Z,6.57
2019-01-19T08:57:41.855Z,6.53
2019-01-19T09:00:12.178Z,8.73
2019-01-19T09:02:40.759Z,6.87
2019-01-19T09:05:09.537Z,7.63
2019-01-19T09:07:38.151Z,8.60
2019-01-19T09:10:08.003Z,7.07
2019-01-19T09:12:36.607Z,5.90
2019-01-19T09:15:05.573Z,6.20
2019-01-19T09:17:34.169Z,5.47
2019-01-19T09:20:02.759Z,6.40
2019-01-19T09:22:32.082Z,6.97
2019-01-19T09:25:00.767Z,8.13
2019-01-19T09:27:30.093Z,6.67
2019-01-19T09:29:58.709Z,6.40
2019-01-19T09:32:27.701Z,5.60
2019-01-19T09:34:56.307Z,5.27
2019-01-19T09:37:24.915Z,5.20
2019-01-19T09:39:53.494Z,6.13
2019-01-19T09:42:22.093Z,6.53
2019-01-19T09:44:50.719Z,7.03
2019-01-19T09:47:19.301Z,7.77
2019-01-19T09:49:47.905Z,6.53
2019-01-19T09:52:21.141Z,7.17
2019-01-19T09:54:46.984Z,6.93
2019-01-19T09:57:15.594Z,7.00
2019-01-19T09:59:44.183Z,6.60
2019-01-19T10:02:12.891Z,6.93
2019-01-19T10:04:41.634Z,7.83
2019-01-19T10:07:10.295Z,7.03
2019-01-19T10:09:38.882Z,7.57
2019-01-19T10:12:07.510Z,6.50
2019-01-19T10:14:36.140Z,6.60
2019-01-19T10:17:04.740Z,7.53
2019-01-19T10:19:33.338Z,6.00
2019-01-19T10:22:01.955Z,6.67
2019-01-19T10:24:30.559Z,6.97
2019-01-19T10:26:59.139Z,6.83
2019-01-19T10:29:29.320Z,6.47
2019-01-19T10:31:57.891Z,7.03
2019-01-19T10:34:26.488Z,6.80
2019-01-19T10:36:55.086Z,6.70
2019-01-19T10:39:23.682Z,6.40
2019-01-19T10:41:52.290Z,7.07
2019-01-19T10:44:20.910Z,6.43
2019-01-19T10:46:49.494Z,7.07
2019-01-19T10:49:18.081Z,6.27
2019-01-19T10:51:46.716Z,6.70
2019-01-19T10:54:16.579Z,7.07
2019-01-19T10:56:45.175Z,6.90
2019-01-19T10:59:13.783Z,7.27
2019-01-19T11:01:42.391Z,8.50
2019-01-19T11:04:10.984Z,8.37
2019-01-19T11:06:39.637Z,9.00
2019-01-19T11:09:08.228Z,7.97
2019-01-19T11:11:36.820Z,7.70
2019-01-19T11:14:05.546Z,7.73
2019-01-19T11:16:34.140Z,8.10
2019-01-19T11:19:02.740Z,8.53
2019-01-19T11:21:31.360Z,9.50
2019-01-19T11:23:59.946Z,8.50
2019-01-19T11:26:28.569Z,10.17
2019-01-19T11:28:57.184Z,11.00
2019-01-19T11:31:25.868Z,9.73
2019-01-19T11:33:54.474Z,10.20
2019-01-19T11:36:23.133Z,10.73
2019-01-19T11:38:51.753Z,9.43
2019-01-19T11:41:20.366Z,10.27
2019-01-19T11:43:49.008Z,10.57
2019-01-19T11:46:17.592Z,11.00
2019-01-19T11:48:46.186Z,10.67
2019-01-19T11:51:14.822Z,10.97
2019-01-19T11:53:43.478Z,12.30
2019-01-19T11:56:12.444Z,11.10
2019-01-19T11:58:41.106Z,11.20
2019-01-19T12:01:09.734Z,11.33
2019-01-19T12:03:38.317Z,11.13
2019-01-19T12:06:06.968Z,11.33
2019-01-19T12:08:35.563Z,11.13
2019-01-19T12:11:04.202Z,12.60
2019-01-19T12:13:32.807Z,12.43
2019-01-19T12:16:01.402Z,11.63
2019-01-19T12:18:30.006Z,11.47
2019-01-19T12:20:58.607Z,11.50
2019-01-19T12:23:27.206Z,12.47
2019-01-19T12:25:55.829Z,12.27
2019-01-19T12:28:24.460Z,11.10
2019-01-19T12:30:53.052Z,11.80
2019-01-19T12:33:21.707Z,11.63
2019-01-19T12:35:50.325Z,11.67
2019-01-19T12:38:18.939Z,12.13
2019-01-19T12:40:47.535Z,11.53
2019-01-19T12:43:17.505Z,12.23
2019-01-19T12:45:56.631Z,12.33
2019-01-19T12:48:25.284Z,12.83
2019-01-19T12:50:53.891Z,11.37
2019-01-19T12:53:22.519Z,12.50
2019-01-19T12:55:51.155Z,13.30
2019-01-19T12:58:19.773Z,11.40
2019-01-19T13:00:48.394Z,13.10
2019-01-19T13:03:17.033Z,11.50
2019-01-19T13:05:50.824Z,12.53
2019-01-19T13:08:20.283Z,12.93
2019-01-19T13:10:58.759Z,13.10
2019-01-19T13:13:33.009Z,11.93
2019-01-19T13:16:32.695Z,11.70
2019-01-19T13:19:04.145Z,12.07
2019-01-19T13:21:58.179Z,13.13
2019-01-19T13:24:37.311Z,12.17
2019-01-19T13:27:11.945Z,10.90
2019-01-19T13:30:08.727Z,12.13
2019-01-19T13:32:46.861Z,12.87
2019-01-19T13:35:43.409Z,12.90
2019-01-19T13:38:23.957Z,11.73
2019-01-19T13:41:17.498Z,12.70
2019-01-19T13:44:05.249Z,11.50
2019-01-19T13:46:51.455Z,11.93
2019-01-19T13:49:42.163Z,12.17
2019-01-19T13:52:22.758Z,12.73
2019-01-19T13:55:05.356Z,11.87
2019-01-19T13:57:47.002Z,12.37
2019-01-19T14:00:34.743Z,12.90
2019-01-19T14:03:31.189Z,12.60
2019-01-19T14:06:21.666Z,12.10
2019-01-19T14:09:09.410Z,10.70
2019-01-19T14:11:51.963Z,12.80
2019-01-19T14:14:42.701Z,10.97
2019-01-19T14:17:19.033Z,12.20
2019-01-19T14:19:56.469Z,12.83
2019-01-19T14:22:56.150Z,12.43
2019-01-19T14:25:55.872Z,12.77
2019-01-19T14:28:33.184Z,11.50
2019-01-19T14:31:20.920Z,11.90
2019-01-19T14:34:07.319Z,13.03
2019-01-19T14:36:57.764Z,11.20
2019-01-19T14:39:57.362Z,12.43
2019-01-19T14:42:39.436Z,13.20
2019-01-19T14:45:21.230Z,12.67
2019-01-19T14:47:57.248Z,12.97
2019-01-19T14:50:49.002Z,13.57
2019-01-19T14:53:54.889Z,12.80
2019-01-19T14:56:26.964Z,13.17
2019-01-19T14:59:03.610Z,11.77
2019-01-19T15:01:38.649Z,12.93
2019-01-19T15:04:32.308Z,12.67
2019-01-19T15:07:26.458Z,12.70
2019-01-19T15:10:16.978Z,11.93
2019-01-19T15:12:54.020Z,12.60
2019-01-19T15:15:40.116Z,12.43
2019-01-19T15:18:26.646Z,12.90
2019-01-19T15:21:14.342Z,12.50
2019-01-19T15:24:00.470Z,12.50
2019-01-19T15:27:06.109Z,13.13
2019-01-19T15:30:02.974Z,12.23
2019-01-19T15:32:39.210Z,15.63
2019-01-19T15:35:19.265Z,13.50
2019-01-19T15:37:58.641Z,12.80
2019-01-19T15:40:52.394Z,11.90
2019-01-19T15:43:31.847Z,13.00
2019-01-19T15:46:05.080Z,13.03
2019-01-19T15:49:07.747Z,12.77
2019-01-19T15:51:55.540Z,12.77
2019-01-19T15:54:58.138Z,13.10
2019-01-19T15:57:29.324Z,13.33
2019-01-19T16:00:22.830Z,13.03
2019-01-19T16:03:09.324Z,13.17
2019-01-19T16:05:57.113Z,13.97
2019-01-19T16:08:30.386Z,14.10
2019-01-19T16:11:11.505Z,13.60
2019-01-19T16:14:02.461Z,13.57
2019-01-19T16:16:59.078Z,16.30
2019-01-19T16:19:53.366Z,14.40
2019-01-19T16:22:49.904Z,13.87
2019-01-19T16:25:31.248Z,14.47
2019-01-19T16:28:04.852Z,14.43
2019-01-19T16:30:48.160Z,15.40
2019-01-19T16:33:26.854Z,14.83
2019-01-19T16:36:01.773Z,14.90
2019-01-19T16:39:01.619Z,16.00
2019-01-19T16:41:52.103Z,15.70
2019-01-19T16:44:43.075Z,16.03
2019-01-19T16:47:25.919Z,15.10
2019-01-19T16:50:13.093Z,16.87
2019-01-19T16:53:09.880Z,15.60
2019-01-19T16:56:03.604Z,15.73
2019-01-19T16:59:03.352Z,17.53
2019-01-19T17:01:51.036Z,19.80
2019-01-19T17:04:24.234Z,16.90
2019-01-19T17:07:09.603Z,18.37
2019-01-19T17:09:50.219Z,16.33
2019-01-19T17:12:53.037Z,17.30
2019-01-19T17:15:46.370Z,15.70
2019-01-19T17:18:32.591Z,16.63
2019-01-19T17:21:20.363Z,16.93
2019-01-19T17:24:10.816Z,16.80
2019-01-19T17:27:01.551Z,16.63
2019-01-19T17:29:40.965Z,16.60
2019-01-19T17:32:22.362Z,16.80
2019-01-19T17:34:54.419Z,16.67
2019-01-19T17:37:34.049Z,16.80
2019-01-19T17:40:24.581Z,18.43
2019-01-19T17:43:10.675Z,18.73
2019-01-19T17:46:13.265Z,19.07
2019-01-19T17:48:53.619Z,17.53
2019-01-19T17:51:36.259Z,18.63
2019-01-19T17:54:27.037Z,17.33
2019-01-19T17:57:20.469Z,18.30
2019-01-19T18:00:09.252Z,17.00
2019-01-19T18:02:56.925Z,17.23
2019-01-19T18:05:42.865Z,16.87
2019-01-19T18:08:33.111Z,16.60
2019-01-19T18:11:09.791Z,18.40
2019-01-19T18:14:15.208Z,17.97
2019-01-19T18:17:03.098Z,17.10
2019-01-19T18:19:50.899Z,17.43
2019-01-19T18:22:41.727Z,18.03
2019-01-19T18:25:47.201Z,17.00
2019-01-19T18:28:21.517Z,16.33
2019-01-19T18:31:07.729Z,17.50
2019-01-19T18:33:53.635Z,16.53
2019-01-19T18:36:47.254Z,17.93
2019-01-19T18:39:41.069Z,18.00
2019-01-19T18:42:22.343Z,16.20
2019-01-19T18:45:10.068Z,18.77
2019-01-19T18:47:41.583Z,18.77
2019-01-19T18:50:29.321Z,18.97
2019-01-19T18:53:25.913Z,19.40
2019-01-19T18:56:13.697Z,19.27
2019-01-19T18:59:04.153Z,19.07
2019-01-19T19:02:09.821Z,19.13
2019-01-19T19:05:06.419Z,18.43
2019-01-19T19:07:52.730Z,20.93
2019-01-19T19:10:39.017Z,20.77
2019-01-19T19:13:24.536Z,19.00
2019-01-19T19:16:11.425Z,18.63
2019-01-19T19:18:59.154Z,20.37
2019-01-19T19:21:40.775Z,20.73
2019-01-19T19:24:28.485Z,19.37
2019-01-19T19:27:16.161Z,19.10
2019-01-19T19:30:09.798Z,19.73
2019-01-19T19:32:48.056Z,19.07
2019-01-19T19:35:41.417Z,18.70
2019-01-19T19:38:37.999Z,17.10
2019-01-19T19:41:27.198Z,17.70
2019-01-19T19:44:14.860Z,18.07
2019-01-19T19:46:52.187Z,18.80
2019-01-19T19:49:38.361Z,19.77
2019-01-19T19:52:07.024Z,18.77
2019-01-19T19:54:36.158Z,18.27
2019-01-19T19:57:04.875Z,18.03
2019-01-19T19:59:33.515Z,19.57
2019-01-19T20:02:02.106Z,18.73
2019-01-19T20:04:30.713Z,18.20
2019-01-19T20:06:59.530Z,17.83
2019-01-19T20:09:28.120Z,16.90
2019-01-19T20:12:01.090Z,17.47
2019-01-19T20:14:29.728Z,17.40
2019-01-19T20:16:58.308Z,18.53
2019-01-19T20:19:27.115Z,17.47
2019-01-19T20:21:55.754Z,15.60
2019-01-19T20:24:24.358Z,14.00
2019-01-19T20:26:52.960Z,15.97
2019-01-19T20:29:21.596Z,15.23
2019-01-19T20:31:50.200Z,15.27
2019-01-19T20:34:18.810Z,17.13
2019-01-19T20:36:47.572Z,16.23
2019-01-19T20:39:16.182Z,16.87
2019-01-19T20:41:44.782Z,16.20
2019-01-19T20:44:13.412Z,16.07
2019-01-19T20:46:42.014Z,15.90
2019-01-19T20:49:10.606Z,15.67
2019-01-19T20:51:39.230Z,14.87
2019-01-19T20:54:07.826Z,13.60
2019-01-19T20:56:36.428Z,14.10
2019-01-19T20:59:05.078Z,15.40
2019-01-19T21:01:33.662Z,16.30
2019-01-19T21:04:02.268Z,15.60
2019-01-19T21:06:30.880Z,15.27
2019-01-19T21:08:59.488Z,15.40
2019-01-19T21:11:28.097Z,14.63
2019-01-19T21:13:56.705Z,14.73
2019-01-19T21:16:25.327Z,15.17
2019-01-19T21:18:54.078Z,15.30
2019-01-19T21:21:22.790Z,15.60
2019-01-19T21:23:51.394Z,17.70
2019-01-19T21:26:19.991Z,18.87
2019-01-19T21:28:48.635Z,18.20
2019-01-19T21:31:17.244Z,19.83
2019-01-19T21:33:45.844Z,18.13
2019-01-19T21:36:14.486Z,17.87
2019-01-19T21:38:43.075Z,17.87
2019-01-19T21:41:11.667Z,19.17
2019-01-19T21:43:40.276Z,18.80
2019-01-19T21:46:08.875Z,19.10
2019-01-19T21:48:37.572Z,17.87
2019-01-19T21:51:06.175Z,19.70
2019-01-19T21:53:34.765Z,18.40
2019-01-19T21:56:03.387Z,20.33
2019-01-19T21:58:31.987Z,21.23
2019-01-19T22:01:00.572Z,18.90
2019-01-19T22:03:29.169Z,18.83
2019-01-19T22:05:57.803Z,18.67
2019-01-19T22:08:26.402Z,16.47
2019-01-19T22:10:55.001Z,18.67
2019-01-19T22:13:23.592Z,17.20
2019-01-19T22:15:52.203Z,17.07
2019-01-19T22:18:20.847Z,16.97
2019-01-19T22:20:49.689Z,17.27
2019-01-19T22:23:18.303Z,16.90
2019-01-19T22:25:46.908Z,18.07
2019-01-19T22:28:15.497Z,16.03
2019-01-19T22:30:44.091Z,16.00
2019-01-19T22:33:13.211Z,15.93
2019-01-19T22:35:42.067Z,16.37
2019-01-19T22:38:10.670Z,16.77
2019-01-19T22:40:39.267Z,15.53
2019-01-19T22:43:08.935Z,16.70
2019-01-19T22:45:37.602Z,16.13
2019-01-19T22:48:06.229Z,16.60
2019-01-19T22:50:34.895Z,16.37
2019-01-19T22:53:03.495Z,16.47
2019-01-19T22:55:32.117Z,17.33
2019-01-19T22:58:00.697Z,16.37
2019-01-19T23:00:39.419Z,15.83
2019-01-19T23:03:08.123Z,15.93
2019-01-19T23:05:36.710Z,16.37
2019-01-19T23:08:05.310Z,14.73
2019-01-19T23:10:34.173Z,16.00
2019-01-19T23:13:02.783Z,15.57
2019-01-19T23:15:31.425Z,14.87
2019-01-19T23:18:00.029Z,14.30
2019-01-19T23:20:28.619Z,14.90
2019-01-19T23:22:57.284Z,13.97
2019-01-19T23:25:25.925Z,13.20
2019-01-19T23:27:54.514Z,13.93
2019-01-19T23:30:23.125Z,13.63
2019-01-19T23:32:51.783Z,14.97
2019-01-19T23:35:20.389Z,14.00
2019-01-19T23:37:49.000Z,18.87
2019-01-19T23:40:17.581Z,20.97
2019-01-19T23:42:47.340Z,22.03
2019-01-19T23:45:16.161Z,21.23
2019-01-19T23:47:44.721Z,20.80
2019-01-19T23:50:13.405Z,21.73
2019-01-19T23:52:42.033Z,22.27
2019-01-19T23:55:10.695Z,23.10
2019-01-19T23:57:39.291Z,19.97
